sensor_id;sensor_type;location;lat;lon;timestamp;P1;P2;P0
72918;PMS7003;61063;55.700;26.994;2022-11-15T00:04:23;1.7;1.3;1.1
72918;PMS7003;61063;55.700;26.994;2022-11-15T00:09:53;2.2;1.5;1.1
72918;PMS7003;61063;55.700;26.994;2022-11-15T00:14:55;2.1;1.4;1
72918;PMS7003;61063;55.700;26.994;2022-11-15T00:19:13;1.9;1.2;1.1
72918;PMS7003;61063;55.700;26.994;2022-11-15T00:24:29;1.9;1.7;1.5
72918;PMS7003;61063;55.700;26.994;2022-11-15T00:29:37;1.7;1.3;1
72918;PMS7003;61063;55.700;26.994;2022-11-15T00:34:53;1.5;1.4;1.1
72918;PMS7003;61063;55.700;26.994;2022-11-15T00:39:13;2.1;1.5;1.1
72918;PMS7003;61063;55.700;26.994;2022-11-15T00:44:55;1.8;1.6;1.3
72918;PMS7003;61063;55.700;26.994;2022-11-15T00:49:27;1.9;1.6;1.2
72918;PMS7003;61063;55.700;26.994;2022-11-15T00:54:43;1.7;1.6;1.3
72918;PMS7003;61063;55.700;26.994;2022-11-15T00:59:55;2.8;2;1.5
72918;PMS7003;61063;55.700;26.994;2022-11-15T01:04:19;2.6;1.9;1.5
72918;PMS7003;61063;55.700;26.994;2022-11-15T01:09:15;3.1;2.2;1.7
72918;PMS7003;61063;55.700;26.994;2022-11-15T01:14:55;3.3;2.4;2
72918;PMS7003;61063;55.700;26.994;2022-11-15T01:19:19;3.6;3.1;2.5
72918;PMS7003;61063;55.700;26.994;2022-11-15T01:24:55;5.7;3.8;3
72918;PMS7003;61063;55.700;26.994;2022-11-15T01:29:57;4.3;3.6;2.9
72918;PMS7003;61063;55.700;26.994;2022-11-15T01:34:17;5.4;4.2;3.4
72918;PMS7003;61063;55.700;26.994;2022-11-15T01:39:33;6;5.1;4
72918;PMS7003;61063;55.700;26.994;2022-11-15T01:44:41;7.5;5.7;4.5
72918;PMS7003;61063;55.700;26.994;2022-11-15T01:50:00;7.4;6.4;5
72918;PMS7003;61063;55.700;26.994;2022-11-15T01:55:00;6.9;5.9;4.6
72918;PMS7003;61063;55.700;26.994;2022-11-15T01:59:57;6.6;5.5;4.5
72918;PMS7003;61063;55.700;26.994;2022-11-15T02:04:35;8.8;7.2;5.7
72918;PMS7003;61063;55.700;26.994;2022-11-15T02:09:47;9;7.6;5.6
72918;PMS7003;61063;55.700;26.994;2022-11-15T02:14:25;8.9;7.4;5.5
72918;PMS7003;61063;55.700;26.994;2022-11-15T02:19:22;9.5;8;6
72918;PMS7003;61063;55.700;26.994;2022-11-15T02:25:03;9.5;8.4;6.5
72918;PMS7003;61063;55.700;26.994;2022-11-15T02:30:02;9.6;8.4;6.5
72918;PMS7003;61063;55.700;26.994;2022-11-15T02:34:31;9.5;8.3;6.4
72918;PMS7003;61063;55.700;26.994;2022-11-15T02:39:58;8.5;7;5
72918;PMS7003;61063;55.700;26.994;2022-11-15T02:44:33;10.3;8.3;6.2
72918;PMS7003;61063;55.700;26.994;2022-11-15T02:49:17;11.5;9.5;7
72918;PMS7003;61063;55.700;26.994;2022-11-15T02:54:33;11.6;9.2;6.8
72918;PMS7003;61063;55.700;26.994;2022-11-15T02:59:36;11.6;10;7.3
72918;PMS7003;61063;55.700;26.994;2022-11-15T03:04:43;9.6;8;5.8
72918;PMS7003;61063;55.700;26.994;2022-11-15T03:09:46;12.1;9.6;7.2
72918;PMS7003;61063;55.700;26.994;2022-11-15T03:15:00;10.3;9.1;6.5
72918;PMS7003;61063;55.700;26.994;2022-11-15T03:19:59;11.6;9.6;6.9
72918;PMS7003;61063;55.700;26.994;2022-11-15T03:24:47;12.8;10;7.5
72918;PMS7003;61063;55.700;26.994;2022-11-15T03:29:26;11.7;9.8;7
72918;PMS7003;61063;55.700;26.994;2022-11-15T03:34:46;11.1;8.9;6.5
72918;PMS7003;61063;55.700;26.994;2022-11-15T03:39:07;11.7;9.4;6.8
72918;PMS7003;61063;55.700;26.994;2022-11-15T03:45:01;11.6;9.2;6.6
72918;PMS7003;61063;55.700;26.994;2022-11-15T03:49:27;11.2;8.3;5.9
72918;PMS7003;61063;55.700;26.994;2022-11-15T03:54:55;8.7;7.1;4.8
72918;PMS7003;61063;55.700;26.994;2022-11-15T03:59:25;8.3;6.6;4.7
72918;PMS7003;61063;55.700;26.994;2022-11-15T04:04:29;8.4;6.5;4.8
72918;PMS7003;61063;55.700;26.994;2022-11-15T04:09:31;8.4;6.4;4.7
72918;PMS7003;61063;55.700;26.994;2022-11-15T04:14:41;6.3;4.9;3.7
72918;PMS7003;61063;55.700;26.994;2022-11-15T04:19:53;6;4.6;3.4
72918;PMS7003;61063;55.700;26.994;2022-11-15T04:24:53;6.3;4.6;3.5
72918;PMS7003;61063;55.700;26.994;2022-11-15T04:29:21;6.1;4.7;3.6
72918;PMS7003;61063;55.700;26.994;2022-11-15T04:34:57;5.9;4.2;3
72918;PMS7003;61063;55.700;26.994;2022-11-15T04:39:45;4.7;3.8;2.8
72918;PMS7003;61063;55.700;26.994;2022-11-15T04:44:27;5.9;4.2;2.9
72918;PMS7003;61063;55.700;26.994;2022-11-15T04:49:55;6.8;4.9;3.5
72918;PMS7003;61063;55.700;26.994;2022-11-15T04:54:55;6.3;4.8;3.7
72918;PMS7003;61063;55.700;26.994;2022-11-15T04:59:53;5.5;4.1;3
72918;PMS7003;61063;55.700;26.994;2022-11-15T05:04:27;5.4;4.5;3
72918;PMS7003;61063;55.700;26.994;2022-11-15T05:09:55;4.6;3.8;2.8
72918;PMS7003;61063;55.700;26.994;2022-11-15T05:14:05;5.1;3.8;2.7
72918;PMS7003;61063;55.700;26.994;2022-11-15T05:19:15;4.3;3.1;2.2
72918;PMS7003;61063;55.700;26.994;2022-11-15T05:24:17;4;3.3;2.5
72918;PMS7003;61063;55.700;26.994;2022-11-15T05:29:39;4.5;2.9;2.2
72918;PMS7003;61063;55.700;26.994;2022-11-15T05:34:43;3.5;2.1;1.6
72918;PMS7003;61063;55.700;26.994;2022-11-15T05:39:57;3.8;2.3;1.6
72918;PMS7003;61063;55.700;26.994;2022-11-15T05:44:18;3.9;2.6;1.7
72918;PMS7003;61063;55.700;26.994;2022-11-15T05:49:55;3.9;2.8;2.1
72918;PMS7003;61063;55.700;26.994;2022-11-15T05:54:43;3.1;2.1;1.5
72918;PMS7003;61063;55.700;26.994;2022-11-15T05:59:15;4.1;2.6;2
72918;PMS7003;61063;55.700;26.994;2022-11-15T06:04:43;2.8;2;1.4
72918;PMS7003;61063;55.700;26.994;2022-11-15T06:09:17;3.7;2.4;1.8
72918;PMS7003;61063;55.700;26.994;2022-11-15T06:14:57;3.7;2.5;1.8
72918;PMS7003;61063;55.700;26.994;2022-11-15T06:19:29;5;3.7;2.6
72918;PMS7003;61063;55.700;26.994;2022-11-15T06:24:55;5.3;3.6;3
72918;PMS7003;61063;55.700;26.994;2022-11-15T06:29:13;3.8;3;2.1
72918;PMS7003;61063;55.700;26.994;2022-11-15T06:34:05;4.2;2.6;1.8
72918;PMS7003;61063;55.700;26.994;2022-11-15T06:39:27;3.7;2.3;1.7
72918;PMS7003;61063;55.700;26.994;2022-11-15T06:44:17;3.4;2;1.4
72918;PMS7003;61063;55.700;26.994;2022-11-15T06:49:29;3.4;2.3;1.7
72918;PMS7003;61063;55.700;26.994;2022-11-15T06:54:51;2.6;1.9;1.3
72918;PMS7003;61063;55.700;26.994;2022-11-15T06:59:53;2.5;1.8;1.4
72918;PMS7003;61063;55.700;26.994;2022-11-15T07:04:53;1.7;1.6;1.2
72918;PMS7003;61063;55.700;26.994;2022-11-15T07:09:43;1.7;1.3;1
72918;PMS7003;61063;55.700;26.994;2022-11-15T07:14:23;2.7;1.4;1.1
72918;PMS7003;61063;55.700;26.994;2022-11-15T07:19:39;1.7;1.2;0.8
72918;PMS7003;61063;55.700;26.994;2022-11-15T07:24:15;1.7;1.1;0.7
72918;PMS7003;61063;55.700;26.994;2022-11-15T07:29:41;1.3;0.8;0.6
72918;PMS7003;61063;55.700;26.994;2022-11-15T07:34:17;1.4;0.8;0.5
72918;PMS7003;61063;55.700;26.994;2022-11-15T07:39:55;1.3;0.7;0.5
72918;PMS7003;61063;55.700;26.994;2022-11-15T07:44:55;1.7;0.9;0.6
72918;PMS7003;61063;55.700;26.994;2022-11-15T07:49:17;1.3;0.8;0.4
72918;PMS7003;61063;55.700;26.994;2022-11-15T07:54:31;1.1;0.5;0.4
72918;PMS7003;61063;55.700;26.994;2022-11-15T07:59:37;0.6;0.4;0.4
72918;PMS7003;61063;55.700;26.994;2022-11-15T08:04:37;1.4;0.6;0.4
72918;PMS7003;61063;55.700;26.994;2022-11-15T08:09:53;0.8;0.5;0.3
72918;PMS7003;61063;55.700;26.994;2022-11-15T08:14:53;0.8;0.4;0.3
72918;PMS7003;61063;55.700;26.994;2022-11-15T08:19:53;1;0.4;0.2
72918;PMS7003;61063;55.700;26.994;2022-11-15T08:24:41;1;0.3;0.2
72918;PMS7003;61063;55.700;26.994;2022-11-15T08:29:15;0.9;0.3;0.2
72918;PMS7003;61063;55.700;26.994;2022-11-15T08:34:41;0.9;0.4;0.1
72918;PMS7003;61063;55.700;26.994;2022-11-15T08:39:15;1.3;0.5;0.3
72918;PMS7003;61063;55.700;26.994;2022-11-15T08:44:53;1.3;0.6;0.4
72918;PMS7003;61063;55.700;26.994;2022-11-15T08:49:27;1.1;0.4;0.3
72918;PMS7003;61063;55.700;26.994;2022-11-15T08:54:53;1.2;0.6;0.4
72918;PMS7003;61063;55.700;26.994;2022-11-15T08:59:25;1.3;0.6;0.4
72918;PMS7003;61063;55.700;26.994;2022-11-15T09:04:51;1.7;0.9;0.6
72918;PMS7003;61063;55.700;26.994;2022-11-15T09:09:27;2;0.9;0.6
72918;PMS7003;61063;55.700;26.994;2022-11-15T09:14:39;1.6;1.1;0.8
72918;PMS7003;61063;55.700;26.994;2022-11-15T09:19:29;1.5;0.8;0.6
72918;PMS7003;61063;55.700;26.994;2022-11-15T09:24:45;1.1;0.7;0.3
72918;PMS7003;61063;55.700;26.994;2022-11-15T09:29:19;1.4;0.7;0.5
72918;PMS7003;61063;55.700;26.994;2022-11-15T09:34:53;1.6;1;0.7
72918;PMS7003;61063;55.700;26.994;2022-11-15T09:39:41;1.2;0.8;0.5
72918;PMS7003;61063;55.700;26.994;2022-11-15T09:44:29;1.5;0.9;0.6
72918;PMS7003;61063;55.700;26.994;2022-11-15T09:49:41;1.8;1.1;0.8
72918;PMS7003;61063;55.700;26.994;2022-11-15T09:54:16;1;0.7;0.4
72918;PMS7003;61063;55.700;26.994;2022-11-15T09:59:58;1.6;1.1;0.8
72918;PMS7003;61063;55.700;26.994;2022-11-15T10:04:27;1.3;0.8;0.6
72918;PMS7003;61063;55.700;26.994;2022-11-15T10:09:28;1.2;0.9;0.7
72918;PMS7003;61063;55.700;26.994;2022-11-15T10:14:16;1.4;1;0.7
72918;PMS7003;61063;55.700;26.994;2022-11-15T10:19:56;1.8;0.9;0.6
72918;PMS7003;61063;55.700;26.994;2022-11-15T10:24:28;2.5;1.4;0.9
72918;PMS7003;61063;55.700;26.994;2022-11-15T10:29:40;2.5;1.5;1.1
72918;PMS7003;61063;55.700;26.994;2022-11-15T10:34:41;2.6;1.4;1.2
72918;PMS7003;61063;55.700;26.994;2022-11-15T10:40:03;2.7;1.9;1.5
72918;PMS7003;61063;55.700;26.994;2022-11-15T10:44:19;3.2;1.7;1.2
72918;PMS7003;61063;55.700;26.994;2022-11-15T10:49:56;3.1;2.1;1.7
72918;PMS7003;61063;55.700;26.994;2022-11-15T10:54:44;3.1;2.2;1.6
72918;PMS7003;61063;55.700;26.994;2022-11-15T10:59:28;2.8;2.5;1.8
72918;PMS7003;61063;55.700;26.994;2022-11-15T11:04:49;2.8;2;1.5
72918;PMS7003;61063;55.700;26.994;2022-11-15T11:09:23;3.1;2;1.5
72918;PMS7003;61063;55.700;26.994;2022-11-15T11:14:53;5.7;4.5;3.1
72918;PMS7003;61063;55.700;26.994;2022-11-15T11:19:19;2.9;1.9;1.4
72918;PMS7003;61063;55.700;26.994;2022-11-15T11:24:56;3.6;2.7;2.2
72918;PMS7003;61063;55.700;26.994;2022-11-15T11:29:19;3.6;2.6;2
72918;PMS7003;61063;55.700;26.994;2022-11-15T11:34:58;3;2.8;2.2
72918;PMS7003;61063;55.700;26.994;2022-11-15T11:39:31;4;2.9;2.2
72918;PMS7003;61063;55.700;26.994;2022-11-15T11:44:24;3.4;2.7;2.1
72918;PMS7003;61063;55.700;26.994;2022-11-15T11:49:29;4.3;3.5;2.7
72918;PMS7003;61063;55.700;26.994;2022-11-15T11:54:44;4.1;3;2.2
72918;PMS7003;61063;55.700;26.994;2022-11-15T11:59:19;4.5;3.5;2.7
72918;PMS7003;61063;55.700;26.994;2022-11-15T12:04:48;9;7;5.2
72918;PMS7003;61063;55.700;26.994;2022-11-15T12:09:59;4.7;3.7;2.9
72918;PMS7003;61063;55.700;26.994;2022-11-15T12:14:32;7;5;3.5
72918;PMS7003;61063;55.700;26.994;2022-11-15T12:19:55;5;4.1;3.1
72918;PMS7003;61063;55.700;26.994;2022-11-15T12:24:18;4.4;3.9;3.1
72918;PMS7003;61063;55.700;26.994;2022-11-15T12:29:56;6.8;4.4;3.3
72918;PMS7003;61063;55.700;26.994;2022-11-15T12:34:33;5.4;4.5;3.2
72918;PMS7003;61063;55.700;26.994;2022-11-15T12:40:19;6.2;4.4;3.4
72918;PMS7003;61063;55.700;26.994;2022-11-15T12:44:55;6.4;5;3.8
72918;PMS7003;61063;55.700;26.994;2022-11-15T12:49:45;6.2;5;4
72918;PMS7003;61063;55.700;26.994;2022-11-15T12:59:53;5.8;4.6;3.6
72918;PMS7003;61063;55.700;26.994;2022-11-15T13:04:21;6.9;5.3;4.2
72918;PMS7003;61063;55.700;26.994;2022-11-15T13:09:55;7.4;5.8;4.3
72918;PMS7003;61063;55.700;26.994;2022-11-15T13:14:57;7.4;5.7;4.3
72918;PMS7003;61063;55.700;26.994;2022-11-15T13:19:58;7.5;6.2;4.8
72918;PMS7003;61063;55.700;26.994;2022-11-15T13:24:57;7.6;5.9;4.2
72918;PMS7003;61063;55.700;26.994;2022-11-15T13:29:39;7.1;5.2;3.6
72918;PMS7003;61063;55.700;26.994;2022-11-15T13:34:42;6.6;5.3;3.7
72918;PMS7003;61063;55.700;26.994;2022-11-15T13:39:26;5.9;5.2;4
72918;PMS7003;61063;55.700;26.994;2022-11-15T13:44:58;6;4.8;3.6
72918;PMS7003;61063;55.700;26.994;2022-11-15T13:49:29;6.5;4.8;3.3
72918;PMS7003;61063;55.700;26.994;2022-11-15T13:54:58;6.2;4.8;3.4
72918;PMS7003;61063;55.700;26.994;2022-11-15T13:59:28;6.1;4.2;3.2
72918;PMS7003;61063;55.700;26.994;2022-11-15T14:04:18;6.1;4.4;3.2
72918;PMS7003;61063;55.700;26.994;2022-11-15T14:09:34;4.7;4;3.1
72918;PMS7003;61063;55.700;26.994;2022-11-15T14:14:44;5;3.8;2.9
72918;PMS7003;61063;55.700;26.994;2022-11-15T14:19:33;4.1;3.5;2.7
72918;PMS7003;61063;55.700;26.994;2022-11-15T14:24:39;4.3;3;2.5
72918;PMS7003;61063;55.700;26.994;2022-11-15T14:29:24;3.3;2.6;1.9
72918;PMS7003;61063;55.700;26.994;2022-11-15T14:34:58;3.8;3.2;2.5
72918;PMS7003;61063;55.700;26.994;2022-11-15T14:39:57;3.7;2.6;2.1
72918;PMS7003;61063;55.700;26.994;2022-11-15T14:44:41;3.9;2.7;2
72918;PMS7003;61063;55.700;26.994;2022-11-15T14:49:43;3.1;2.3;1.9
72918;PMS7003;61063;55.700;26.994;2022-11-15T14:54:17;3.4;2.3;1.8
72918;PMS7003;61063;55.700;26.994;2022-11-15T14:59:55;3.7;2.3;1.7
72918;PMS7003;61063;55.700;26.994;2022-11-15T15:04:17;2.8;2.3;1.7
72918;PMS7003;61063;55.700;26.994;2022-11-15T15:09:57;3.3;2.4;1.9
72918;PMS7003;61063;55.700;26.994;2022-11-15T15:14:25;2.4;1.8;1.5
72918;PMS7003;61063;55.700;26.994;2022-11-15T15:19:57;3.5;2.6;2.1
72918;PMS7003;61063;55.700;26.994;2022-11-15T15:24:57;2.8;2;1.5
72918;PMS7003;61063;55.700;26.994;2022-11-15T15:29:37;2.9;2.2;1.7
72918;PMS7003;61063;55.700;26.994;2022-11-15T15:34:57;2.9;2.1;1.6
72918;PMS7003;61063;55.700;26.994;2022-11-15T15:39:39;3;2.2;1.6
72918;PMS7003;61063;55.700;26.994;2022-11-15T15:44:17;3.5;2.4;1.9
72918;PMS7003;61063;55.700;26.994;2022-11-15T15:49:53;3.5;2.4;1.9
72918;PMS7003;61063;55.700;26.994;2022-11-15T15:54:43;3.5;2.9;2.2
72918;PMS7003;61063;55.700;26.994;2022-11-15T15:59:39;3.6;2.7;2.1
72918;PMS7003;61063;55.700;26.994;2022-11-15T16:04:27;3.2;2.3;1.7
72918;PMS7003;61063;55.700;26.994;2022-11-15T16:09:55;4.4;3.2;2.5
72918;PMS7003;61063;55.700;26.994;2022-11-15T16:14:21;8.7;7.1;5
72918;PMS7003;61063;55.700;26.994;2022-11-15T16:19:45;5.5;4.3;3.3
72918;PMS7003;61063;55.700;26.994;2022-11-15T16:24:29;10.3;8.4;6
72918;PMS7003;61063;55.700;26.994;2022-11-15T16:29:55;11;8.9;5.9
72918;PMS7003;61063;55.700;26.994;2022-11-15T16:34:17;22.8;17.4;11.5
72918;PMS7003;61063;55.700;26.994;2022-11-15T16:39:43;30.4;22.8;14.6
72918;PMS7003;61063;55.700;26.994;2022-11-15T16:44:31;6.6;5.1;3.7
72918;PMS7003;61063;55.700;26.994;2022-11-15T16:49:57;11.2;9.5;5.9
72918;PMS7003;61063;55.700;26.994;2022-11-15T16:54:57;6;4.7;3.6
72918;PMS7003;61063;55.700;26.994;2022-11-15T16:59:55;2.6;2.2;1.9
72918;PMS7003;61063;55.700;26.994;2022-11-15T17:04:33;5.3;4.2;3.3
72918;PMS7003;61063;55.700;26.994;2022-11-15T17:09:57;4.1;3.2;2.5
72918;PMS7003;61063;55.700;26.994;2022-11-15T17:14:45;3.1;2.2;1.7
72918;PMS7003;61063;55.700;26.994;2022-11-15T17:19:16;2.4;1.7;1.3
72918;PMS7003;61063;55.700;26.994;2022-11-15T17:24:29;2.6;1.4;1.1
72918;PMS7003;61063;55.700;26.994;2022-11-15T17:29:31;2.4;1.4;1.1
72918;PMS7003;61063;55.700;26.994;2022-11-15T17:34:33;2.5;1.9;1.5
72918;PMS7003;61063;55.700;26.994;2022-11-15T17:39:19;2.7;2.4;2
72918;PMS7003;61063;55.700;26.994;2022-11-15T17:44:47;5.2;4.2;3
72918;PMS7003;61063;55.700;26.994;2022-11-15T17:49:43;5.2;4;3.1
72918;PMS7003;61063;55.700;26.994;2022-11-15T17:54:43;2.9;1.8;1.3
72918;PMS7003;61063;55.700;26.994;2022-11-15T17:59:41;2.2;1.8;1.3
72918;PMS7003;61063;55.700;26.994;2022-11-15T18:04:53;1.8;1.5;1.2
72918;PMS7003;61063;55.700;26.994;2022-11-15T18:09:57;1.6;0.9;0.7
72918;PMS7003;61063;55.700;26.994;2022-11-15T18:14:17;1.5;0.9;0.7
72918;PMS7003;61063;55.700;26.994;2022-11-15T18:19:46;1;0.7;0.5
72918;PMS7003;61063;55.700;26.994;2022-11-15T18:24:43;1.6;0.8;0.6
72918;PMS7003;61063;55.700;26.994;2022-11-15T18:29:43;1.5;0.9;0.7
72918;PMS7003;61063;55.700;26.994;2022-11-15T18:34:27;1.3;0.9;0.8
72918;PMS7003;61063;55.700;26.994;2022-11-15T18:39:58;1.7;1.1;0.9
72918;PMS7003;61063;55.700;26.994;2022-11-15T18:44:31;1.1;0.8;0.7
72918;PMS7003;61063;55.700;26.994;2022-11-15T18:49:45;1.2;0.8;0.5
72918;PMS7003;61063;55.700;26.994;2022-11-15T18:54:29;0.8;0.6;0.5
72918;PMS7003;61063;55.700;26.994;2022-11-15T18:59:55;1.2;0.6;0.5
72918;PMS7003;61063;55.700;26.994;2022-11-15T19:04:55;1;0.5;0.3
72918;PMS7003;61063;55.700;26.994;2022-11-15T19:09:43;0.9;0.4;0.3
72918;PMS7003;61063;55.700;26.994;2022-11-15T19:14:31;0.5;0.3;0.2
72918;PMS7003;61063;55.700;26.994;2022-11-15T19:19:57;1.1;0.3;0.1
72918;PMS7003;61063;55.700;26.994;2022-11-15T19:24:39;0.6;0.3;0.2
72918;PMS7003;61063;55.700;26.994;2022-11-15T19:29:17;0.4;0.3;0.2
72918;PMS7003;61063;55.700;26.994;2022-11-15T19:34:45;0.3;0.1;0.1
72918;PMS7003;61063;55.700;26.994;2022-11-15T19:39:45;0;0;0
72918;PMS7003;61063;55.700;26.994;2022-11-15T19:44:45;0.1;0;0
72918;PMS7003;61063;55.700;26.994;2022-11-15T19:49:59;0.2;0;0
72918;PMS7003;61063;55.700;26.994;2022-11-15T19:54:59;0;0;0
72918;PMS7003;61063;55.700;26.994;2022-11-15T19:59:05;0.1;0;0
72918;PMS7003;61063;55.700;26.994;2022-11-15T20:04:45;0;0;0
72918;PMS7003;61063;55.700;26.994;2022-11-15T20:09:59;0;0;0
72918;PMS7003;61063;55.700;26.994;2022-11-15T20:14:59;0.1;0;0
72918;PMS7003;61063;55.700;26.994;2022-11-15T20:19:59;0;0;0
72918;PMS7003;61063;55.700;26.994;2022-11-15T20:24:07;0;0;0
72918;PMS7003;61063;55.700;26.994;2022-11-15T20:29:31;0;0;0
72918;PMS7003;61063;55.700;26.994;2022-11-15T20:34:43;0.1;0;0
72918;PMS7003;61063;55.700;26.994;2022-11-15T20:39:59;0.1;0;0
72918;PMS7003;61063;55.700;26.994;2022-11-15T20:44:59;0;0;0
72918;PMS7003;61063;55.700;26.994;2022-11-15T20:49:59;0.1;0;0
72918;PMS7003;61063;55.700;26.994;2022-11-15T20:54:45;0;0;0
72918;PMS7003;61063;55.700;26.994;2022-11-15T20:59:43;0.1;0;0
72918;PMS7003;61063;55.700;26.994;2022-11-15T21:04:59;0.2;0;0
72918;PMS7003;61063;55.700;26.994;2022-11-15T21:09:17;0.1;0;0
72918;PMS7003;61063;55.700;26.994;2022-11-15T21:14:59;0;0;0
72918;PMS7003;61063;55.700;26.994;2022-11-15T21:19:45;0.1;0;0
72918;PMS7003;61063;55.700;26.994;2022-11-15T21:24:29;0.1;0;0
72918;PMS7003;61063;55.700;26.994;2022-11-15T21:29:55;0;0;0
72918;PMS7003;61063;55.700;26.994;2022-11-15T21:34:59;0.2;0;0
72918;PMS7003;61063;55.700;26.994;2022-11-15T21:39:59;0.2;0;0
72918;PMS7003;61063;55.700;26.994;2022-11-15T21:44:59;0;0;0
72918;PMS7003;61063;55.700;26.994;2022-11-15T21:49:59;0;0;0
72918;PMS7003;61063;55.700;26.994;2022-11-15T21:54:43;0.3;0;0
72918;PMS7003;61063;55.700;26.994;2022-11-15T21:59:13;0;0;0
72918;PMS7003;61063;55.700;26.994;2022-11-15T22:04:53;0.1;0;0
72918;PMS7003;61063;55.700;26.994;2022-11-15T22:09:41;0.1;0;0
72918;PMS7003;61063;55.700;26.994;2022-11-15T22:14:25;0;0;0
72918;PMS7003;61063;55.700;26.994;2022-11-15T22:19:25;0;0;0
72918;PMS7003;61063;55.700;26.994;2022-11-15T22:24:55;0.1;0;0
72918;PMS7003;61063;55.700;26.994;2022-11-15T22:29:53;0;0;0
72918;PMS7003;61063;55.700;26.994;2022-11-15T22:34:55;0.1;0;0
72918;PMS7003;61063;55.700;26.994;2022-11-15T22:39:25;0;0;0
72918;PMS7003;61063;55.700;26.994;2022-11-15T22:44:53;0;0;0
72918;PMS7003;61063;55.700;26.994;2022-11-15T22:49:13;0.1;0;0
72918;PMS7003;61063;55.700;26.994;2022-11-15T22:54:55;0.1;0;0
72918;PMS7003;61063;55.700;26.994;2022-11-15T22:59:27;0;0;0
72918;PMS7003;61063;55.700;26.994;2022-11-15T23:04:37;0;0;0
72918;PMS7003;61063;55.700;26.994;2022-11-15T23:09:55;0.1;0;0
72918;PMS7003;61063;55.700;26.994;2022-11-15T23:14:17;0;0;0
72918;PMS7003;61063;55.700;26.994;2022-11-15T23:19:13;0;0;0
72918;PMS7003;61063;55.700;26.994;2022-11-15T23:24:41;0;0;0
72918;PMS7003;61063;55.700;26.994;2022-11-15T23:29:26;0.1;0;0
72918;PMS7003;61063;55.700;26.994;2022-11-15T23:34:25;0;0;0
72918;PMS7003;61063;55.700;26.994;2022-11-15T23:39:13;0;0;0
72918;PMS7003;61063;55.700;26.994;2022-11-15T23:44:25;0;0;0
72918;PMS7003;61063;55.700;26.994;2022-11-15T23:49:41;0;0;0
72918;PMS7003;61063;55.700;26.994;2022-11-15T23:54:25;0.1;0;0
72918;PMS7003;61063;55.700;26.994;2022-11-15T23:59:53;0.2;0;0
